Private Wetterstation Nrnberg - Katzwang
Wetterdaten: Mrz 2010
Datum Temp. A. Feuchte A. Luftdruck Regen Wind Richtung Taupunkt Windchill Windben
01.03.2010 4,0 C 66 % 1009 hPa 0,0 l/m 3,1 km/h W-NW -2,1 C 3,1 C 4,1 km/h
02.03.2010 0,7 C 82 % 1019 hPa 0,0 l/m 1,7 km/h W-NW -2,0 C 0,7 C 2,7 km/h
03.03.2010 -0,3 C 73 % 1016 hPa 0,0 l/m 1,2 km/h NO -4,9 C -0,3 C 2,2 km/h
04.03.2010 -0,5 C 64 % 1013 hPa 0,0 l/m 4,0 km/h N-NO -6,6 C -1,3 C 4,9 km/h
05.03.2010 -2,4 C 59 % 1018 hPa 0,0 l/m 3,8 km/h N -9,7 C -2,5 C 4,8 km/h
06.03.2010 -3,2 C 80 % 1015 hPa 2,1 l/m 9,0 km/h N -6,1 C -6,8 C 10,0 km/h
07.03.2010 -5,0 C 66 % 1025 hPa 0,0 l/m 3,9 km/h N-NO -10,5 C -5,6 C 4,9 km/h
08.03.2010 -4,8 C 75 % 1020 hPa 0,0 l/m 2,9 km/h NO -8,8 C -6,0 C 3,9 km/h
09.03.2010 -3,3 C 58 % 1020 hPa 0,0 l/m 14,2 km/h NO -10,7 C -9,3 C 15,7 km/h
10.03.2010 -0,7 C 51 % 1015 hPa 0,0 l/m 10,8 km/h O -9,6 C -4,6 C 14,7 km/h
11.03.2010 -0,8 C 70 % 1012 hPa 0,0 l/m 0,0 km/h NO -5,7 C -0,8 C 1,0 km/h
12.03.2010 -0,1 C 80 % 1016 hPa 0,0 l/m 1,2 km/h W-NW -3,2 C -0,1 C 2,2 km/h
13.03.2010 2,5 C 78 % 1020 hPa 0,0 l/m 8,7 km/h W-NW -1,0 C 0,5 C 15,2 km/h
14.03.2010 3,4 C 80 % 1017 hPa 0,5 l/m 9,7 km/h W-NW 0,2 C 0,6 C 10,7 km/h
15.03.2010 3,5 C 85 % 1018 hPa 3,6 l/m 6,5 km/h W-NW 1,1 C 1,9 C 7,5 km/h
16.03.2010 5,4 C 80 % 1022 hPa 2,1 l/m 2,2 km/h W-NW 2,0 C 4,9 C 3,2 km/h
17.03.2010 5,3 C 73 % 1024 hPa 0,0 l/m 1,7 km/h W-NW 0,5 C 5,2 C 2,7 km/h
18.03.2010 8,0 C 65 % 1021 hPa 0,0 l/m 1,2 km/h W-NW 1,2 C 8,0 C 2,2 km/h
19.03.2010 8,7 C 69 % 1018 hPa 0,0 l/m 4,3 km/h O-NO 2,9 C 8,1 C 5,3 km/h
20.03.2010 13,4 C 73 % 1012 hPa 0,0 l/m 2,2 km/h W-NW 8,4 C 13,4 C 3,2 km/h
21.03.2010 12,0 C 79 % 1015 hPa 2,6 l/m 11,9 km/h W-NW 8,5 C 8,9 C 12,9 km/h
22.03.2010 9,8 C 76 % 1019 hPa 0,0 l/m 2,4 km/h NO 5,6 C 9,4 C 3,4 km/h
23.03.2010 7,4 C 74 % 1017 hPa 0,0 l/m 1,5 km/h NO 2,7 C 7,4 C 2,5 km/h
24.03.2010 9,5 C 66 % 1012 hPa 0,0 l/m 4,9 km/h O-NO 2,8 C 8,5 C 7,5 km/h
25.03.2010 12,6 C 59 % 1007 hPa 0,0 l/m 2,4 km/h O-NO 3,7 C 12,4 C 3,4 km/h
26.03.2010 11,8 C 70 % 1006 hPa 2,1 l/m 12,3 km/h NO 5,4 C 8,3 C 13,3 km/h
27.03.2010 7,8 C 82 % 1007 hPa 0,5 l/m 6,0 km/h W-NW 4,7 C 7,1 C 7,0 km/h
28.03.2010 8,3 C 84 % 1010 hPa 0,0 l/m 3,9 km/h W-NW 5,6 C 8,3 C 4,9 km/h
29.03.2010 9,7 C 87 % 1005 hPa 0,0 l/m 4,6 km/h W-NW 7,6 C 8,8 C 5,6 km/h
30.03.2010 12,5 C 74 % 995 hPa 0,0 l/m 7,0 km/h O 7,4 C 11,3 C 8,0 km/h
31.03.2010 8,3 C 68 % 1003 hPa 0,0 l/m 3,9 km/h W-NW 2,3 C 7,8 C 4,9 km/h
Min-Datum 08.03.10 25.03.10 30.03.10 7 Tage 01.03.10 - 08.03.10 09.03.10 01.03.10
Min-Zeit 06:50 14:30 16:40 - 16:30 - 06:20 09:40 16:30
Minimum -11,8 C 30 % 992 hPa - 0,0 km/h - -14,6 C -18,1 C 1,0 km/h
Max-Datum 26.03.10 30.03.10 07.03.10 15.03.10 01.03.10 - 21.03.10 26.03.10 26.03.10
Max-Zeit 13:40 08:30 08:40 10:40 09:50 - 15:00 14:10 16:20
Maximum 23,6 C 93 % 1028 hPa 3,6 l/m 36,3 km/h
W-NW
- 11,7 C 23,4 C 72,8 km/h
NO
Durchschnitt 4,6 C 72 % 1014 hPa #13,5 l/m 4,9 km/h W-NW -0,3 C 3,5 C 6,3 km/h

Durchschnitt Minimum Temp.0,1 C
Durchschnitt Maximum Temp.10,3 C